createdAt,value
2023-02-15T05:02:20.069Z,-0.89
2023-02-15T05:06:22.848Z,-0.85
2023-02-15T05:10:25.447Z,-0.82
2023-02-15T05:14:28.284Z,-0.83
2023-02-15T05:18:32.236Z,-0.92
2023-02-15T05:22:34.814Z,-0.98
2023-02-15T05:26:54.870Z,-1.02
2023-02-15T05:31:05.129Z,-1.00
2023-02-15T05:35:09.575Z,-1.01
2023-02-15T05:39:12.103Z,-1.00
2023-02-15T05:43:14.713Z,-1.00
2023-02-15T05:47:17.236Z,-0.96
2023-02-15T05:51:21.104Z,-1.02
2023-02-15T05:55:23.652Z,-1.16
2023-02-15T05:59:26.160Z,-1.15
2023-02-15T06:03:29.768Z,-1.11
2023-02-15T06:07:33.867Z,-1.08
2023-02-15T06:11:36.529Z,-1.08
2023-02-15T06:15:39.121Z,-1.16
2023-02-15T06:19:41.743Z,-1.14
2023-02-15T06:23:45.615Z,-1.20
2023-02-15T06:27:48.171Z,-1.28
2023-02-15T06:31:50.906Z,-1.21
2023-02-15T06:35:53.539Z,-1.17
2023-02-15T06:39:57.407Z,-1.11
2023-02-15T06:44:03.039Z,-1.27
2023-02-15T06:48:07.815Z,-1.36
2023-02-15T06:52:11.847Z,-1.25
2023-02-15T06:56:16.623Z,-1.31
2023-02-15T07:00:19.737Z,-1.29
2023-02-15T07:04:22.303Z,-1.03
2023-02-15T07:08:25.319Z,-0.83
2023-02-15T07:12:45.288Z,-0.87
2023-02-15T07:16:47.831Z,-0.99
2023-02-15T07:20:50.362Z,-0.97
2023-02-15T07:24:55.488Z,-1.06
2023-02-15T07:28:59.357Z,-0.86
2023-02-15T07:33:19.431Z,-0.93
2023-02-15T07:37:21.976Z,-0.98
2023-02-15T07:41:24.985Z,-0.93
2023-02-15T07:45:28.912Z,-0.84
2023-02-15T07:49:31.430Z,-0.82
2023-02-15T07:53:35.646Z,-0.69
2023-02-15T07:57:38.130Z,-0.61
2023-02-15T08:01:42.365Z,-0.46
2023-02-15T08:05:46.730Z,-0.55
2023-02-15T08:09:49.239Z,-0.50
2023-02-15T08:13:56.269Z,-0.38
2023-02-15T08:18:00.156Z,-0.40
2023-02-15T08:22:04.950Z,-0.55
2023-02-15T08:26:07.497Z,-0.45
2023-02-15T08:30:10.952Z,-0.24
2023-02-15T08:34:17.011Z,-0.10
2023-02-15T08:38:19.518Z,0.10
2023-02-15T08:42:22.074Z,0.23
2023-02-15T08:46:26.309Z,0.23
2023-02-15T08:50:30.229Z,0.37
2023-02-15T08:54:32.779Z,0.57
2023-02-15T08:58:35.793Z,0.83
2023-02-15T09:02:38.433Z,1.06
2023-02-15T09:06:44.053Z,1.16
2023-02-15T09:10:46.597Z,1.10
2023-02-15T09:14:49.119Z,1.25
2023-02-15T09:18:52.577Z,1.48
2023-02-15T09:22:58.575Z,1.55
2023-02-15T09:27:02.289Z,1.55
2023-02-15T09:31:10.513Z,1.81
2023-02-15T09:35:13.095Z,1.82
2023-02-15T09:39:18.982Z,1.86
2023-02-15T09:43:36.056Z,2.01
2023-02-15T09:47:52.984Z,1.95
2023-02-15T09:52:12.533Z,1.97
2023-02-15T09:56:24.268Z,2.18
2023-02-15T10:00:36.662Z,2.36
2023-02-15T10:04:52.513Z,2.47
2023-02-15T10:09:09.643Z,2.71
2023-02-15T10:13:28.100Z,2.99
2023-02-15T10:17:44.712Z,3.13
2023-02-15T10:22:00.747Z,3.35
2023-02-15T10:26:12.423Z,3.41
2023-02-15T10:30:17.957Z,3.71
2023-02-15T10:34:25.121Z,3.97
2023-02-15T10:38:37.592Z,4.27
2023-02-15T10:42:55.551Z,4.54
2023-02-15T10:47:14.379Z,4.71
2023-02-15T10:51:24.582Z,5.05
2023-02-15T10:55:38.982Z,5.27
2023-02-15T11:00:00.992Z,5.55
2023-02-15T11:04:40.836Z,5.61
2023-02-15T11:08:47.733Z,5.91
2023-02-15T11:12:51.560Z,6.01
2023-02-15T11:16:57.983Z,6.19
2023-02-15T11:21:05.823Z,6.40
2023-02-15T11:25:19.303Z,6.61
2023-02-15T11:29:27.361Z,6.61
2023-02-15T11:33:37.027Z,6.50
2023-02-15T11:37:47.873Z,6.74
2023-02-15T11:41:54.950Z,6.81
2023-02-15T11:45:57.573Z,6.94
2023-02-15T11:50:02.105Z,7.08
2023-02-15T11:54:06.163Z,7.15
2023-02-15T11:58:20.832Z,7.34
2023-02-15T12:02:27.529Z,7.37
2023-02-15T12:06:33.271Z,7.56
2023-02-15T12:10:42.345Z,7.57
2023-02-15T12:14:50.323Z,7.69
2023-02-15T12:18:55.514Z,7.84
2023-02-15T12:23:03.938Z,7.88
2023-02-15T12:27:16.952Z,7.98
2023-02-15T12:31:23.920Z,8.07
2023-02-15T12:35:30.859Z,8.18
2023-02-15T12:39:33.978Z,8.45
2023-02-15T12:43:40.042Z,8.30
2023-02-15T12:47:42.600Z,8.41
2023-02-15T12:51:47.327Z,8.47
2023-02-15T12:55:56.311Z,8.62
2023-02-15T13:00:03.942Z,8.69
2023-02-15T13:04:16.106Z,8.77
2023-02-15T13:08:21.576Z,8.88
2023-02-15T13:12:28.270Z,9.04
2023-02-15T13:16:36.014Z,9.17
2023-02-15T13:20:41.565Z,9.17
2023-02-15T13:24:48.382Z,9.31
2023-02-15T13:28:55.244Z,9.44
2023-02-15T13:33:03.871Z,9.50
2023-02-15T13:37:14.583Z,9.83
2023-02-15T13:41:21.141Z,9.76
2023-02-15T13:45:38.314Z,9.82
2023-02-15T13:49:54.349Z,9.85
2023-02-15T13:54:18.450Z,9.95
2023-02-15T13:58:39.667Z,9.94
2023-02-15T14:03:03.508Z,9.91
2023-02-15T14:07:14.771Z,9.98
2023-02-15T14:11:23.239Z,10.05
2023-02-15T14:15:37.289Z,10.06
2023-02-15T14:19:46.877Z,10.10
2023-02-15T14:24:02.565Z,10.26
2023-02-15T14:28:10.794Z,10.42
2023-02-15T14:32:18.655Z,10.48
2023-02-15T14:36:22.017Z,10.62
2023-02-15T14:40:52.258Z,10.63
2023-02-15T14:45:02.740Z,10.72
2023-02-15T14:49:12.963Z,10.75
2023-02-15T14:53:39.084Z,10.77
2023-02-15T14:57:59.260Z,10.82
2023-02-15T15:02:14.224Z,10.87
2023-02-15T15:06:29.816Z,10.82
2023-02-15T15:10:42.066Z,10.96
2023-02-15T15:14:46.754Z,11.02
2023-02-15T15:18:50.680Z,11.01
2023-02-15T15:23:33.638Z,10.73
2023-02-15T15:27:48.574Z,10.59
2023-02-15T15:31:56.904Z,10.39
2023-02-15T15:36:20.866Z,10.17
2023-02-15T15:40:42.487Z,10.10
2023-02-15T15:45:16.216Z,9.92
2023-02-15T15:49:23.240Z,9.86
2023-02-15T15:53:28.404Z,9.81
2023-02-15T15:57:35.709Z,9.73
2023-02-15T16:01:43.196Z,9.68
2023-02-15T16:05:47.101Z,9.58
2023-02-15T16:09:56.674Z,9.35
2023-02-15T16:13:59.283Z,8.85
2023-02-15T16:18:02.973Z,8.42
2023-02-15T16:22:13.870Z,7.95
2023-02-15T16:26:27.098Z,7.64
2023-02-15T16:30:32.540Z,7.39
2023-02-15T16:34:35.226Z,7.02
2023-02-15T16:39:09.014Z,6.72
2023-02-15T16:43:18.270Z,6.45
2023-02-15T16:47:24.891Z,6.24
2023-02-15T16:51:30.530Z,5.92
2023-02-15T16:55:38.984Z,5.69
2023-02-15T16:59:46.484Z,5.50
2023-02-15T17:03:51.173Z,5.34
2023-02-15T17:08:08.449Z,5.07
2023-02-15T17:12:12.307Z,4.94
2023-02-15T17:16:31.187Z,4.77
2023-02-15T17:20:37.440Z,4.78
2023-02-15T17:24:42.699Z,4.68
2023-02-15T17:28:50.785Z,4.65
2023-02-15T17:32:58.272Z,4.48
2023-02-15T17:37:02.851Z,4.06
2023-02-15T17:41:05.648Z,3.77
2023-02-15T17:45:12.266Z,3.75
2023-02-15T17:49:24.704Z,3.76
2023-02-15T17:53:27.307Z,3.60
2023-02-15T17:57:30.999Z,3.57
2023-02-15T18:01:53.583Z,3.50
2023-02-15T18:06:13.921Z,3.26
2023-02-15T18:10:36.396Z,3.14
2023-02-15T18:14:39.249Z,2.97
2023-02-15T18:18:44.333Z,2.96
2023-02-15T18:22:47.367Z,2.79
2023-02-15T18:26:49.945Z,2.67
2023-02-15T18:30:52.580Z,2.55
2023-02-15T18:34:58.598Z,2.47
2023-02-15T18:39:07.758Z,2.36
2023-02-15T18:43:13.324Z,2.33
2023-02-15T18:47:15.885Z,2.28
2023-02-15T18:51:21.584Z,2.16
2023-02-15T18:55:26.426Z,2.08
2023-02-15T18:59:30.361Z,1.99
2023-02-15T19:03:32.923Z,2.02
2023-02-15T19:07:37.733Z,2.08
2023-02-15T19:11:40.313Z,1.91
2023-02-15T19:15:42.833Z,1.74
2023-02-15T19:19:46.267Z,1.71
2023-02-15T19:23:53.751Z,1.66
2023-02-15T19:27:57.311Z,1.51
2023-02-15T19:31:59.903Z,1.46
2023-02-15T19:36:02.911Z,1.43
2023-02-15T19:40:08.888Z,1.55
2023-02-15T19:44:11.542Z,1.58
2023-02-15T19:48:15.300Z,1.58
2023-02-15T19:52:20.478Z,1.58
2023-02-15T19:56:26.873Z,1.56
2023-02-15T20:00:31.230Z,1.63
2023-02-15T20:04:34.318Z,1.62
2023-02-15T20:08:36.922Z,1.62
2023-02-15T20:12:42.630Z,1.38
2023-02-15T20:16:45.340Z,1.21
2023-02-15T20:20:50.698Z,1.23
2023-02-15T20:24:55.429Z,1.26
2023-02-15T20:28:59.434Z,1.33
2023-02-15T20:33:02.016Z,1.31
2023-02-15T20:37:04.659Z,1.16
2023-02-15T20:41:28.719Z,0.94
2023-02-15T20:45:33.815Z,1.11
2023-02-15T20:49:38.550Z,1.18
2023-02-15T20:53:41.218Z,1.22
2023-02-15T20:57:43.892Z,1.13
2023-02-15T21:01:47.945Z,1.04
2023-02-15T21:05:50.599Z,0.97
2023-02-15T21:09:54.121Z,0.77
2023-02-15T21:13:56.700Z,0.61
2023-02-15T21:18:02.569Z,0.62
2023-02-15T21:22:05.157Z,0.65
2023-02-15T21:26:08.456Z,0.62
2023-02-15T21:30:16.712Z,0.56
2023-02-15T21:34:21.338Z,0.50
2023-02-15T21:38:28.310Z,0.44
2023-02-15T21:42:48.827Z,0.40
2023-02-15T21:47:09.098Z,0.32
2023-02-15T21:51:30.813Z,0.23
2023-02-15T21:55:33.937Z,0.17
2023-02-15T21:59:36.466Z,0.16
